Time;durP1;ratioP1;P1;durP2;ratioP2;P2;SDS_P1;SDS_P2;PMS_P1;PMS_P2;Temp;Humidity;BMP_temperature;BMP_pressure;BME280_temperature;BME280_humidity;BME280_pressure;Samples;Min_cycle;Max_cycle;Signal;HPM_P1;HPM_P2
2023/09/05 00:02:00;;;;;;;13.52;7.07;;;15.00;99.90;;;;;;4983316;28;20057;-71
2023/09/05 00:04:28;;;;;;;11.10;6.53;;;15.00;99.90;;;;;;4957802;28;20881;-70
2023/09/05 00:06:54;;;;;;;10.55;6.05;;;14.90;99.90;;;;;;4977506;28;20053;-70
2023/09/05 00:09:20;;;;;;;13.65;6.70;;;14.90;99.90;;;;;;4929932;28;20046;-71
2023/09/05 00:11:47;;;;;;;12.02;6.80;;;14.90;99.90;;;;;;4987589;28;20034;-69
2023/09/05 00:14:15;;;;;;;14.60;7.60;;;14.90;99.90;;;;;;4972515;28;20049;-70
2023/09/05 00:16:41;;;;;;;13.52;7.13;;;14.80;99.90;;;;;;4986324;28;20790;-70
2023/09/05 00:19:07;;;;;;;12.30;7.28;;;14.80;99.90;;;;;;4938008;28;20065;-70
2023/09/05 00:21:33;;;;;;;15.65;6.93;;;14.80;99.90;;;;;;4985549;28;20042;-70
2023/09/05 00:24:25;;;;;;;15.20;7.20;;;14.80;99.90;;;;;;4958598;28;20054;-68
2023/09/05 00:26:51;;;;;;;14.07;8.20;;;14.70;99.90;;;;;;4995528;28;20532;-71
2023/09/05 00:29:20;;;;;;;14.93;7.53;;;14.70;99.90;;;;;;4959127;28;20065;-69
2023/09/05 00:31:47;;;;;;;13.05;7.68;;;14.70;99.90;;;;;;4985048;28;20057;-69
2023/09/05 00:34:14;;;;;;;12.57;7.18;;;14.60;99.90;;;;;;4956701;28;20054;-70
2023/09/05 00:36:42;;;;;;;12.25;7.80;;;14.60;99.90;;;;;;4982599;28;20054;-70
2023/09/05 00:39:09;;;;;;;13.20;7.93;;;14.60;99.90;;;;;;4959067;28;20042;-70
2023/09/05 00:41:37;;;;;;;11.85;7.65;;;14.60;99.90;;;;;;4999845;28;20085;-70
2023/09/05 00:44:04;;;;;;;12.73;7.30;;;14.50;99.90;;;;;;4973528;28;20068;-71
2023/09/05 00:46:32;;;;;;;15.68;8.68;;;14.50;99.90;;;;;;5006861;28;20057;-70
2023/09/05 00:49:02;;;;;;;13.48;9.02;;;14.50;99.90;;;;;;4962863;28;20060;-71
2023/09/05 00:51:32;;;;;;;13.48;8.48;;;14.50;99.90;;;;;;4996971;28;20046;-70
2023/09/05 00:54:03;;;;;;;13.55;9.02;;;14.50;99.90;;;;;;4936217;28;214194;-69
2023/09/05 00:56:29;;;;;;;13.40;8.27;;;14.50;99.90;;;;;;5012191;28;20541;-68
2023/09/05 00:58:56;;;;;;;13.95;8.75;;;14.50;99.90;;;;;;4974173;28;20580;-70
2023/09/05 01:01:22;;;;;;;14.25;8.68;;;14.40;99.90;;;;;;5008217;28;20069;-71
2023/09/05 01:03:50;;;;;;;13.80;8.20;;;14.40;99.90;;;;;;4964959;28;20053;-70
2023/09/05 01:06:26;;;;;;;13.57;9.20;;;14.40;99.90;;;;;;4996830;28;20072;-71
2023/09/05 01:09:01;;;;;;;14.20;8.88;;;14.40;99.90;;;;;;4961313;28;20470;-69
2023/09/05 01:11:27;;;;;;;13.20;8.50;;;14.30;99.90;;;;;;5000465;28;20042;-70
2023/09/05 01:13:53;;;;;;;15.52;9.23;;;14.30;99.90;;;;;;4960321;28;20173;-70
2023/09/05 01:16:19;;;;;;;12.43;8.55;;;14.30;99.90;;;;;;4998009;28;20053;-71
2023/09/05 01:22:52;;;;;;;12.88;8.27;;;14.30;99.90;;;;;;4973575;28;20052;-70
2023/09/05 01:25:19;;;;;;;14.45;9.18;;;14.30;99.90;;;;;;4961155;28;20065;-71
2023/09/05 01:27:48;;;;;;;13.45;8.57;;;14.30;99.90;;;;;;4945521;28;20047;-69
2023/09/05 01:30:15;;;;;;;12.43;7.78;;;14.30;99.90;;;;;;5007114;28;20061;-71
2023/09/05 01:32:41;;;;;;;12.48;8.60;;;14.30;99.90;;;;;;4965793;28;20062;-71
2023/09/05 01:35:08;;;;;;;16.33;8.95;;;14.20;99.90;;;;;;4997896;28;20060;-70
2023/09/05 01:37:34;;;;;;;13.60;8.38;;;14.30;99.90;;;;;;4961318;28;20061;-71
2023/09/05 01:40:00;;;;;;;14.20;9.10;;;14.20;99.90;;;;;;4932086;28;20085;-69
2023/09/05 01:42:26;;;;;;;15.23;9.18;;;14.20;99.90;;;;;;4963970;28;20063;-69
2023/09/05 01:44:52;;;;;;;13.52;9.45;;;14.20;99.90;;;;;;4951720;28;20508;-67
2023/09/05 01:47:18;;;;;;;14.25;9.07;;;14.20;99.90;;;;;;4985223;28;20058;-67
2023/09/05 01:49:44;;;;;;;13.80;8.77;;;14.20;99.90;;;;;;4954950;28;20050;-67
2023/09/05 01:52:10;;;;;;;14.68;8.80;;;14.20;99.90;;;;;;4986518;28;20473;-67
2023/09/05 01:54:40;;;;;;;14.90;9.65;;;14.20;99.90;;;;;;4963034;28;152567;-68
2023/09/05 01:57:06;;;;;;;16.15;9.57;;;14.20;99.90;;;;;;5007853;28;20089;-66
2023/09/05 01:59:33;;;;;;;15.15;9.18;;;14.20;99.90;;;;;;4978230;28;20049;-67
2023/09/05 02:01:59;;;;;;;14.88;9.70;;;14.10;99.90;;;;;;5002706;28;20522;-68
2023/09/05 02:04:25;;;;;;;17.27;10.77;;;14.10;99.90;;;;;;4967295;28;20041;-68
2023/09/05 02:06:51;;;;;;;14.63;10.50;;;14.10;99.90;;;;;;5003304;28;20052;-67
2023/09/05 02:09:17;;;;;;;15.00;9.63;;;14.10;99.90;;;;;;4980749;28;20068;-68
2023/09/05 02:11:43;;;;;;;14.90;10.45;;;14.10;99.90;;;;;;5006140;28;20655;-66
2023/09/05 02:14:09;;;;;;;14.82;9.63;;;14.10;99.90;;;;;;4957715;28;20050;-68
2023/09/05 02:16:36;;;;;;;18.00;10.50;;;14.10;99.90;;;;;;4987538;28;20794;-67
2023/09/05 02:19:02;;;;;;;16.17;10.85;;;14.10;99.90;;;;;;4941415;28;20157;-66
2023/09/05 02:21:28;;;;;;;16.25;10.48;;;14.10;99.90;;;;;;4979811;28;20054;-68
2023/09/05 02:23:54;;;;;;;16.40;11.70;;;14.00;99.90;;;;;;4966382;28;20054;-67
2023/09/05 02:26:20;;;;;;;14.20;10.07;;;14.00;99.90;;;;;;4999274;28;20053;-71
2023/09/05 02:28:46;;;;;;;14.32;10.32;;;14.00;99.90;;;;;;4961489;28;20046;-70
2023/09/05 02:31:12;;;;;;;14.73;10.95;;;14.00;99.90;;;;;;5000344;28;20049;-71
2023/09/05 02:33:38;;;;;;;17.88;11.50;;;14.00;99.90;;;;;;4974078;28;20045;-70
2023/09/05 02:36:17;;;;;;;16.20;11.30;;;14.00;99.90;;;;;;4994171;28;20419;-70
2023/09/05 02:38:43;;;;;;;16.00;11.75;;;14.10;99.90;;;;;;4948351;28;20057;-70
2023/09/05 02:41:14;;;;;;;16.67;11.38;;;14.10;99.90;;;;;;4968532;28;20629;-70
2023/09/05 02:43:40;;;;;;;16.98;11.40;;;14.10;99.90;;;;;;4955743;28;20476;-70
2023/09/05 02:46:07;;;;;;;16.50;12.00;;;14.10;99.90;;;;;;4978466;28;20058;-69
2023/09/05 02:48:40;;;;;;;20.63;12.38;;;14.00;99.90;;;;;;4952041;28;20434;-70
2023/09/05 02:51:11;;;;;;;16.42;11.95;;;14.00;99.90;;;;;;4990616;28;20050;-70
2023/09/05 02:53:37;;;;;;;18.73;11.98;;;14.00;99.90;;;;;;4927137;28;121033;-71
2023/09/05 02:56:04;;;;;;;16.90;12.10;;;14.00;99.90;;;;;;4987202;28;20517;-70
2023/09/05 02:58:32;;;;;;;16.30;11.75;;;14.00;99.90;;;;;;4946213;28;20055;-70
2023/09/05 03:01:03;;;;;;;16.40;11.25;;;14.00;99.90;;;;;;4981411;28;20055;-72
2023/09/05 03:03:30;;;;;;;15.30;10.63;;;14.00;99.90;;;;;;4958761;28;20049;-70
2023/09/05 03:05:58;;;;;;;17.67;11.82;;;14.00;99.90;;;;;;4995640;28;20058;-69
2023/09/05 03:08:24;;;;;;;16.48;10.93;;;13.90;99.90;;;;;;4946255;28;20054;-70
2023/09/05 03:10:52;;;;;;;14.05;10.13;;;13.90;99.90;;;;;;4989459;28;20065;-71
2023/09/05 03:13:19;;;;;;;16.83;10.65;;;13.90;99.90;;;;;;4938099;28;20205;-71
2023/09/05 03:15:48;;;;;;;14.90;10.23;;;13.90;99.90;;;;;;4981164;28;20042;-71
2023/09/05 03:18:14;;;;;;;17.10;10.95;;;13.80;99.90;;;;;;4951865;28;20419;-70
2023/09/05 03:20:40;;;;;;;17.70;12.60;;;13.80;99.90;;;;;;4990847;28;20125;-71
2023/09/05 03:23:07;;;;;;;15.63;11.07;;;13.80;99.90;;;;;;4951520;28;20460;-70
2023/09/05 03:25:33;;;;;;;15.13;11.02;;;13.80;99.90;;;;;;4985519;28;20157;-70
2023/09/05 03:28:00;;;;;;;18.55;11.07;;;13.80;99.90;;;;;;4944585;28;20055;-69
2023/09/05 03:30:26;;;;;;;18.65;12.25;;;13.70;99.90;;;;;;4977788;28;20618;-70
2023/09/05 03:32:52;;;;;;;17.83;11.75;;;13.70;99.90;;;;;;4941859;28;20058;-69
2023/09/05 03:35:18;;;;;;;19.40;10.85;;;13.70;99.90;;;;;;4977782;28;20058;-69
2023/09/05 03:37:44;;;;;;;16.80;11.43;;;13.70;99.90;;;;;;4941582;28;20048;-71
2023/09/05 03:40:10;;;;;;;15.60;11.10;;;13.70;99.90;;;;;;4983377;28;20063;-70
2023/09/05 03:42:36;;;;;;;19.30;12.30;;;13.70;99.90;;;;;;4946166;28;20062;-70
2023/09/05 03:45:03;;;;;;;17.77;11.43;;;13.70;99.90;;;;;;4995862;28;20050;-71
2023/09/05 03:47:29;;;;;;;16.73;11.25;;;13.70;99.90;;;;;;4955215;28;20081;-72
2023/09/05 03:49:55;;;;;;;20.75;12.18;;;13.60;99.90;;;;;;4997320;28;20050;-70
2023/09/05 03:52:21;;;;;;;17.58;13.00;;;13.70;99.90;;;;;;4990048;28;20085;-66
2023/09/05 03:54:47;;;;;;;17.55;12.05;;;13.60;99.90;;;;;;4938498;28;84370;-70
2023/09/05 03:57:14;;;;;;;17.52;12.23;;;13.70;99.90;;;;;;5010365;28;20057;-71
2023/09/05 03:59:40;;;;;;;18.83;13.52;;;13.60;99.90;;;;;;4969355;28;20041;-70
2023/09/05 04:02:06;;;;;;;16.15;11.55;;;13.60;99.90;;;;;;4982582;28;20049;-69
2023/09/05 04:04:32;;;;;;;16.92;12.50;;;13.60;99.90;;;;;;4959845;28;20046;-69
2023/09/05 04:06:58;;;;;;;18.02;12.20;;;13.60;99.90;;;;;;4985401;28;20065;-70
2023/09/05 04:09:24;;;;;;;16.45;11.77;;;13.60;99.90;;;;;;4980179;28;20049;-69
2023/09/05 04:11:50;;;;;;;18.23;13.25;;;13.50;99.90;;;;;;4978745;28;20412;-70
2023/09/05 04:14:16;;;;;;;18.23;13.05;;;13.50;99.90;;;;;;4953482;28;20049;-71
2023/09/05 04:16:42;;;;;;;18.48;12.85;;;13.50;99.90;;;;;;5002966;28;20058;-69
2023/09/05 04:19:08;;;;;;;17.70;12.45;;;13.50;99.90;;;;;;4965881;28;20060;-70
2023/09/05 04:21:35;;;;;;;17.45;10.98;;;13.50;99.90;;;;;;4997554;28;20065;-71
2023/09/05 04:24:01;;;;;;;15.45;11.70;;;13.40;99.90;;;;;;4952439;28;20053;-71
2023/09/05 04:26:28;;;;;;;18.25;12.38;;;13.40;99.90;;;;;;4999838;28;20050;-70
2023/09/05 04:28:54;;;;;;;21.23;13.05;;;13.40;99.90;;;;;;4971647;28;20054;-71
2023/09/05 04:31:21;;;;;;;21.30;12.73;;;13.40;99.90;;;;;;5004794;28;20061;-70
2023/09/05 04:33:48;;;;;;;15.80;11.30;;;13.40;99.90;;;;;;4982532;28;20048;-70
2023/09/05 04:36:15;;;;;;;19.77;12.55;;;13.40;99.90;;;;;;5001952;28;20955;-71
2023/09/05 04:38:44;;;;;;;16.90;12.18;;;13.30;99.90;;;;;;4962777;28;20053;-68
2023/09/05 04:41:11;;;;;;;18.42;12.80;;;13.40;99.90;;;;;;4997603;28;20085;-70
2023/09/05 04:43:37;;;;;;;17.00;11.75;;;13.40;99.90;;;;;;4959785;28;20046;-70
2023/09/05 04:46:05;;;;;;;17.15;12.15;;;13.30;99.90;;;;;;4983980;28;20058;-70
2023/09/05 04:48:32;;;;;;;15.93;11.85;;;13.30;99.90;;;;;;4961845;28;20056;-70
2023/09/05 04:51:04;;;;;;;17.52;13.02;;;13.30;99.90;;;;;;5011354;28;20053;-70
2023/09/05 04:53:30;;;;;;;17.27;12.73;;;13.30;99.90;;;;;;4942100;28;76628;-72
2023/09/05 04:55:59;;;;;;;14.50;10.88;;;13.30;99.90;;;;;;4989779;28;20062;-70
2023/09/05 04:58:27;;;;;;;17.38;13.20;;;13.30;99.90;;;;;;4950890;28;20100;-69
2023/09/05 05:00:56;;;;;;;21.27;12.00;;;13.30;99.90;;;;;;4983434;28;20061;-70
2023/09/05 05:03:24;;;;;;;18.17;12.82;;;13.30;99.90;;;;;;4943970;28;20050;-71
2023/09/05 05:05:50;;;;;;;16.83;11.70;;;13.30;99.90;;;;;;4981069;28;20051;-69
2023/09/05 05:08:16;;;;;;;18.83;13.80;;;13.30;99.90;;;;;;4925649;28;20380;-70
2023/09/05 05:10:42;;;;;;;17.70;12.73;;;13.30;99.90;;;;;;4984802;28;20051;-70
2023/09/05 05:13:08;;;;;;;16.70;12.05;;;13.30;99.90;;;;;;4956808;28;20042;-69
2023/09/05 05:15:34;;;;;;;17.25;12.23;;;13.40;99.90;;;;;;5012284;28;20060;-70
2023/09/05 05:18:00;;;;;;;21.23;13.77;;;13.40;99.90;;;;;;4966502;28;22166;-72
2023/09/05 05:20:26;;;;;;;14.77;11.15;;;13.40;99.90;;;;;;5006781;28;20049;-71
2023/09/05 05:22:52;;;;;;;16.88;12.35;;;13.40;99.90;;;;;;4967324;28;20093;-70
2023/09/05 05:25:19;;;;;;;15.43;11.38;;;13.50;99.90;;;;;;5013579;28;20426;-69
2023/09/05 05:27:45;;;;;;;15.93;11.52;;;13.70;99.90;;;;;;4961131;28;20058;-69
2023/09/05 05:30:12;;;;;;;16.10;11.60;;;13.80;99.90;;;;;;5013530;28;20065;-71
2023/09/05 05:32:38;;;;;;;17.25;12.30;;;14.00;99.90;;;;;;4968540;28;20594;-71
2023/09/05 05:35:05;;;;;;;17.80;11.18;;;14.10;99.90;;;;;;5001244;28;20049;-69
2023/09/05 05:37:31;;;;;;;14.95;11.10;;;14.10;99.90;;;;;;4967822;28;20387;-72
2023/09/05 05:39:57;;;;;;;16.50;11.65;;;14.10;99.90;;;;;;5000498;28;20049;-70
2023/09/05 05:42:23;;;;;;;15.02;11.05;;;14.40;99.90;;;;;;4995449;28;20057;-70
2023/09/05 05:44:49;;;;;;;15.70;9.90;;;14.90;99.90;;;;;;4968080;28;20051;-69
2023/09/05 05:47:15;;;;;;;14.95;10.00;;;15.40;99.90;;;;;;4988897;28;20538;-70
2023/09/05 05:49:41;;;;;;;14.52;9.45;;;15.90;99.90;;;;;;4960402;28;20042;-70
2023/09/05 05:52:10;;;;;;;13.65;9.05;;;16.40;99.90;;;;;;4988629;28;20058;-70
2023/09/05 05:54:36;;;;;;;13.00;9.35;;;16.80;99.90;;;;;;4929842;28;150459;-73
2023/09/05 05:57:03;;;;;;;13.07;8.85;;;17.20;99.90;;;;;;5008910;28;20044;-72
2023/09/05 05:59:29;;;;;;;14.80;8.80;;;17.50;99.90;;;;;;4962630;28;20102;-71
2023/09/05 06:01:56;;;;;;;14.50;8.82;;;17.90;99.90;;;;;;5000727;28;20061;-68
2023/09/05 06:04:23;;;;;;;14.88;8.15;;;18.20;99.90;;;;;;4960014;28;20057;-70
2023/09/05 06:06:50;;;;;;;12.60;8.05;;;18.40;99.90;;;;;;4984757;28;20054;-70
2023/09/05 06:09:19;;;;;;;14.30;7.85;;;18.70;99.90;;;;;;4939411;28;20055;-71
2023/09/05 06:11:46;;;;;;;11.45;7.45;;;19.00;99.90;;;;;;4983666;28;20058;-69
2023/09/05 06:14:16;;;;;;;12.90;7.47;;;19.20;99.90;;;;;;4943935;28;20054;-71
2023/09/05 06:16:46;;;;;;;12.23;7.63;;;19.50;99.90;;;;;;4985352;28;20055;-70
2023/09/05 06:19:14;;;;;;;13.32;7.65;;;19.70;99.90;;;;;;4966916;28;20046;-70
2023/09/05 06:21:41;;;;;;;11.75;6.53;;;20.10;99.90;;;;;;4985271;28;20046;-69
2023/09/05 06:24:07;;;;;;;11.43;6.97;;;20.30;99.90;;;;;;4944654;28;20081;-70
2023/09/05 06:26:33;;;;;;;13.68;7.20;;;20.60;99.90;;;;;;4994767;28;20041;-71
2023/09/05 06:28:59;;;;;;;11.55;6.55;;;20.90;99.90;;;;;;4934272;28;20051;-69
2023/09/05 06:31:25;;;;;;;10.88;6.22;;;21.10;99.90;;;;;;4981674;28;20748;-70
2023/09/05 06:33:52;;;;;;;12.52;6.00;;;21.40;99.90;;;;;;4941676;28;20058;-69
2023/09/05 06:36:18;;;;;;;10.65;5.85;;;21.50;99.90;;;;;;4979911;28;20373;-70
2023/09/05 06:38:44;;;;;;;12.95;5.85;;;21.70;99.90;;;;;;4934092;28;20063;-70
2023/09/05 06:41:11;;;;;;;13.75;5.40;;;21.90;99.90;;;;;;4981307;28;20065;-72
2023/09/05 06:43:37;;;;;;;10.82;5.40;;;22.20;99.90;;;;;;4940297;28;20061;-70
2023/09/05 06:46:04;;;;;;;12.55;5.68;;;22.50;99.90;;;;;;4979645;28;20443;-71
2023/09/05 06:48:31;;;;;;;10.25;5.07;;;22.60;99.90;;;;;;4961641;28;20041;-70
2023/09/05 06:50:58;;;;;;;10.98;5.20;;;22.90;99.90;;;;;;4994107;28;20047;-71
2023/09/05 06:53:28;;;;;;;12.20;5.15;;;23.10;99.90;;;;;;4938690;28;160588;-70
2023/09/05 06:55:54;;;;;;;11.90;5.32;;;23.30;99.90;;;;;;4988851;28;20400;-70
2023/09/05 06:58:23;;;;;;;13.85;5.30;;;23.50;99.90;;;;;;4951615;28;20071;-69
2023/09/05 07:00:53;;;;;;;9.63;4.85;;;23.70;99.90;;;;;;4997322;28;20519;-68
2023/09/05 07:03:21;;;;;;;10.60;4.97;;;23.80;99.90;;;;;;4964934;28;20046;-70
2023/09/05 07:05:47;;;;;;;11.05;5.00;;;24.00;99.90;;;;;;5007325;28;20061;-69
2023/09/05 07:08:13;;;;;;;9.48;4.32;;;24.10;99.90;;;;;;4962751;28;20439;-71
2023/09/05 07:10:39;;;;;;;14.55;4.30;;;24.30;99.90;;;;;;4983180;28;20074;-71
2023/09/05 07:13:05;;;;;;;10.18;3.80;;;24.50;99.90;;;;;;4955411;28;20053;-70
2023/09/05 07:15:31;;;;;;;11.30;3.95;;;24.90;99.90;;;;;;4998113;28;20057;-70
2023/09/05 07:17:57;;;;;;;8.77;3.70;;;25.10;99.90;;;;;;4971089;28;20576;-71
2023/09/05 07:20:24;;;;;;;8.45;3.70;;;25.20;99.70;;;;;;5003832;28;20050;-70
2023/09/05 07:22:50;;;;;;;9.70;3.80;;;25.40;99.60;;;;;;4977447;28;20049;-69
2023/09/05 07:25:17;;;;;;;7.90;3.50;;;25.70;99.60;;;;;;4998487;28;20052;-70
2023/09/05 07:27:43;;;;;;;9.43;3.35;;;26.00;99.40;;;;;;4968432;28;20054;-71
2023/09/05 07:30:09;;;;;;;9.23;3.70;;;26.20;98.70;;;;;;5001010;28;20057;-70
2023/09/05 07:32:36;;;;;;;8.35;2.97;;;26.40;98.10;;;;;;4971836;28;20525;-70
2023/09/05 07:35:03;;;;;;;7.43;3.10;;;26.60;98.10;;;;;;5002429;28;20139;-70
2023/09/05 07:37:30;;;;;;;7.40;2.90;;;26.80;97.90;;;;;;4969787;28;20069;-69
2023/09/05 07:39:56;;;;;;;7.80;2.60;;;27.00;97.70;;;;;;4988014;28;20104;-70
2023/09/05 07:42:22;;;;;;;10.13;3.38;;;27.30;97.50;;;;;;4998376;28;20049;-69
2023/09/05 07:44:48;;;;;;;8.68;2.90;;;27.40;96.70;;;;;;4952486;28;20543;-72
2023/09/05 07:47:14;;;;;;;8.25;2.65;;;27.40;96.30;;;;;;4983985;28;20058;-71
2023/09/05 07:49:43;;;;;;;9.52;2.97;;;27.60;96.40;;;;;;4973386;28;20479;-70
2023/09/05 07:52:09;;;;;;;7.95;2.83;;;27.70;96.40;;;;;;5006437;28;20057;-71
2023/09/05 07:54:36;;;;;;;11.18;2.92;;;27.90;95.80;;;;;;4934329;28;186986;-70
2023/09/05 07:57:03;;;;;;;8.18;2.60;;;28.00;95.50;;;;;;4998965;28;20105;-69
2023/09/05 07:59:31;;;;;;;9.52;2.58;;;28.10;95.00;;;;;;4959653;28;20049;-70
2023/09/05 08:01:57;;;;;;;8.35;2.60;;;28.20;95.00;;;;;;4997846;28;20050;-71
2023/09/05 08:04:23;;;;;;;7.70;2.60;;;28.40;94.80;;;;;;4962846;28;20509;-71
2023/09/05 08:06:50;;;;;;;9.30;2.58;;;28.60;94.30;;;;;;5002382;28;20046;-70
2023/09/05 08:09:16;;;;;;;8.60;2.60;;;28.70;94.60;;;;;;4952897;28;20052;-69
2023/09/05 08:11:42;;;;;;;8.52;2.65;;;28.70;94.00;;;;;;5001799;28;20042;-70
2023/09/05 08:14:08;;;;;;;7.65;2.45;;;28.90;94.00;;;;;;4949262;28;20507;-70
2023/09/05 08:16:34;;;;;;;7.90;2.40;;;29.00;93.60;;;;;;4996391;28;20054;-70
2023/09/05 08:19:01;;;;;;;7.75;2.28;;;29.20;93.90;;;;;;4968177;28;20050;-70
2023/09/05 08:21:27;;;;;;;10.75;2.28;;;29.40;93.60;;;;;;5008172;28;20045;-70
2023/09/05 08:23:53;;;;;;;10.05;2.63;;;29.70;94.00;;;;;;4948704;28;20049;-71
2023/09/05 08:26:19;;;;;;;6.90;2.20;;;29.70;93.50;;;;;;4999941;28;20062;-71
2023/09/05 08:28:45;;;;;;;9.23;2.17;;;30.00;92.90;;;;;;4959825;28;20050;-70
2023/09/05 08:31:13;;;;;;;8.27;2.30;;;30.30;92.80;;;;;;5004525;28;20050;-70
2023/09/05 08:33:40;;;;;;;8.27;2.22;;;30.50;92.40;;;;;;4969922;28;20056;-71
2023/09/05 08:36:08;;;;;;;8.05;2.20;;;30.70;92.50;;;;;;5005486;28;20115;-71
2023/09/05 08:38:37;;;;;;;7.97;2.05;;;31.00;92.10;;;;;;4956533;28;20054;-70
2023/09/05 08:41:06;;;;;;;7.97;2.10;;;31.20;91.70;;;;;;4999242;28;20054;-72
2023/09/05 08:43:34;;;;;;;6.22;1.90;;;31.40;91.80;;;;;;4973964;28;20054;-70
2023/09/05 08:46:00;;;;;;;7.90;2.10;;;31.70;91.60;;;;;;5006299;28;20045;-71
2023/09/05 08:48:27;;;;;;;7.00;2.00;;;31.90;91.50;;;;;;4962989;28;29413;-71
2023/09/05 08:50:55;;;;;;;8.82;2.00;;;32.00;90.90;;;;;;5005485;28;20471;-71
2023/09/05 08:53:30;;;;;;;7.85;1.70;;;32.10;90.60;;;;;;4954414;28;106609;-69
2023/09/05 08:55:57;;;;;;;6.07;1.98;;;32.30;90.30;;;;;;5013206;28;20049;-70
2023/09/05 08:58:25;;;;;;;7.32;1.80;;;32.20;90.50;;;;;;4957234;28;176906;-70
2023/09/05 09:00:51;;;;;;;6.13;1.88;;;32.30;90.10;;;;;;4988623;28;20062;-70
2023/09/05 09:03:17;;;;;;;7.60;1.90;;;32.60;90.10;;;;;;4967259;28;20045;-70
2023/09/05 09:05:46;;;;;;;5.22;1.75;;;32.80;90.00;;;;;;5009381;28;20419;-70
2023/09/05 09:08:13;;;;;;;5.95;1.80;;;33.00;89.20;;;;;;4962287;28;242355;-69
2023/09/05 09:10:40;;;;;;;7.65;2.05;;;33.30;89.90;;;;;;5015716;28;20065;-70
2023/09/05 09:13:19;;;;;;;8.50;2.05;;;33.60;89.00;;;;;;4968630;28;20061;-70
2023/09/05 09:15:46;;;;;;;7.75;1.90;;;33.90;87.40;;;;;;5007011;28;20054;-70
2023/09/05 09:18:13;;;;;;;7.55;1.80;;;34.10;87.20;;;;;;4964014;28;167745;-71
2023/09/05 09:20:43;;;;;;;6.68;1.70;;;34.50;86.60;;;;;;5003468;28;20061;-70
2023/09/05 09:23:09;;;;;;;;;;;34.60;86.40;;;;;;4961178;28;133850;-69
2023/09/05 09:25:45;;;;;;;6.45;1.80;;;34.90;86.10;;;;;;4980865;28;19922;-71
2023/09/05 09:28:32;;;;;;;6.90;1.90;;;35.20;86.00;;;;;;4951906;28;84559;-70
2023/09/05 09:31:01;;;;;;;5.75;1.60;;;35.40;85.10;;;;;;5015223;28;20048;-72
2023/09/05 09:33:31;;;;;;;6.47;1.63;;;35.70;84.50;;;;;;4960067;28;258423;-70
2023/09/05 09:36:00;;;;;;;5.53;1.70;;;35.50;82.90;;;;;;5000495;28;20057;-69
2023/09/05 09:38:27;;;;;;;7.35;1.48;;;35.50;83.40;;;;;;4973528;28;163526;-75
2023/09/05 09:40:53;;;;;;;7.07;1.80;;;35.90;83.00;;;;;;4999855;28;20456;-71
2023/09/05 09:43:19;;;;;;;8.50;1.80;;;36.20;81.90;;;;;;4968226;28;56517;-71
2023/09/05 09:45:45;;;;;;;7.15;1.80;;;36.50;81.20;;;;;;5001606;28;20057;-71
2023/09/05 09:48:15;;;;;;;6.82;1.60;;;36.70;81.70;;;;;;4969045;28;212822;-71
2023/09/05 09:50:43;;;;;;;5.75;1.60;;;36.70;80.60;;;;;;5017181;28;20053;-72
2023/09/05 09:53:12;;;;;;;7.03;1.60;;;36.70;79.10;;;;;;4947177;28;218540;-72
2023/09/05 09:55:44;;;;;;;7.45;1.70;;;37.00;79.10;;;;;;4989011;28;20058;-72
2023/09/05 09:58:18;;;;;;;6.95;1.50;;;37.40;78.90;;;;;;4955257;28;28978;-72
2023/09/05 10:00:45;;;;;;;6.05;1.70;;;37.70;79.80;;;;;;4978589;28;20431;-71
2023/09/05 10:03:13;;;;;;;4.90;1.50;;;37.90;77.80;;;;;;4948826;28;69676;-71
2023/09/05 10:05:41;;;;;;;4.97;1.45;;;38.20;75.70;;;;;;5014543;28;20059;-71
2023/09/05 10:08:11;;;;;;;7.03;1.50;;;38.10;76.70;;;;;;4966323;28;140763;-71
2023/09/05 10:10:41;;;;;;;6.60;1.50;;;38.30;76.90;;;;;;4997803;28;20504;-73
2023/09/05 10:13:09;;;;;;;7.20;1.58;;;38.40;76.10;;;;;;4973217;28;20359;-73
2023/09/05 10:15:42;;;;;;;5.10;1.40;;;38.50;76.40;;;;;;4999791;28;20068;-73
2023/09/05 10:18:12;;;;;;;6.05;1.40;;;38.40;74.40;;;;;;4968037;28;80889;-72
2023/09/05 10:20:40;;;;;;;7.38;1.33;;;38.00;75.10;;;;;;5006058;28;20053;-72
2023/09/05 10:23:06;;;;;;;5.70;1.40;;;38.20;75.00;;;;;;4965975;28;20048;-71
2023/09/05 10:25:36;;;;;;;5.63;1.40;;;37.90;73.90;;;;;;4993871;28;20061;-69
2023/09/05 10:28:02;;;;;;;;;;;37.90;74.10;;;;;;4949023;28;20066;-70
2023/09/05 10:30:28;;;;;;;5.25;1.40;;;37.70;72.40;;;;;;4991460;28;19922;-71
2023/09/05 10:32:57;;;;;;;4.88;1.33;;;37.60;74.50;;;;;;4950560;28;77366;-70
2023/09/05 10:35:23;;;;;;;7.13;1.70;;;37.70;74.00;;;;;;4998776;28;20061;-70
2023/09/05 10:37:55;;;;;;;5.43;1.42;;;37.80;73.50;;;;;;4939528;28;153106;-71
2023/09/05 10:40:35;;;;;;;6.65;1.50;;;37.90;73.70;;;;;;4976418;28;20061;-72
2023/09/05 10:43:04;;;;;;;9.15;1.40;;;38.20;74.10;;;;;;4952762;28;33246;-72
2023/09/05 10:45:32;;;;;;;5.32;1.63;;;38.50;74.50;;;;;;4981063;28;20054;-71
2023/09/05 10:48:22;;;;;;;6.95;1.63;;;38.40;74.20;;;;;;4952132;28;73284;-72
2023/09/05 10:51:10;;;;;;;6.68;1.50;;;38.40;73.80;;;;;;4986413;28;20050;-71
2023/09/05 10:53:38;;;;;;;6.38;1.65;;;38.20;71.90;;;;;;4950015;28;187322;-70
2023/09/05 10:56:04;;;;;;;5.78;1.40;;;38.00;73.10;;;;;;5009110;28;20069;-71
2023/09/05 10:58:56;;;;;;;6.35;1.30;;;38.00;71.90;;;;;;4963319;28;113229;-70
2023/09/05 11:01:31;;;;;;;6.85;1.40;;;38.10;73.20;;;;;;4986073;28;20411;-72
2023/09/05 11:04:03;;;;;;;6.68;1.30;;;38.00;72.70;;;;;;4947548;28;121981;-70
2023/09/05 11:06:43;;;;;;;6.47;1.60;;;38.20;72.80;;;;;;4989250;28;20533;-71
2023/09/05 11:09:09;;;;;;;;;;;38.00;71.10;;;;;;4951797;28;59483;-72
2023/09/05 11:11:37;;;;;;;6.05;1.80;;;38.20;70.80;;;;;;4989528;28;19937;-70
2023/09/05 11:14:09;;;;;;;6.05;1.42;;;37.70;73.30;;;;;;4937259;28;40499;-71
2023/09/05 11:16:47;;;;;;;5.78;1.30;;;37.80;72.70;;;;;;4985068;28;20648;-71
2023/09/05 11:19:35;;;;;;;4.95;1.30;;;37.70;72.20;;;;;;4945821;28;246254;-70
2023/09/05 11:22:11;;;;;;;4.93;1.30;;;38.30;72.40;;;;;;4989072;28;20046;-72
2023/09/05 11:24:46;;;;;;;5.90;1.60;;;38.90;72.40;;;;;;4923619;28;149966;-71
2023/09/05 11:27:17;;;;;;;5.32;1.40;;;39.00;71.90;;;;;;5005651;28;20080;-72
2023/09/05 11:29:45;;;;;;;4.38;1.27;;;38.80;72.50;;;;;;4957871;28;135014;-71
2023/09/05 11:32:14;;;;;;;4.30;1.35;;;38.90;71.70;;;;;;5003141;28;20081;-71
2023/09/05 11:34:45;;;;;;;5.97;1.35;;;39.20;71.90;;;;;;4940560;28;228584;-71
2023/09/05 11:37:16;;;;;;;6.20;1.20;;;39.40;70.20;;;;;;4984142;28;20058;-71
2023/09/05 11:39:42;;;;;;;6.25;1.27;;;39.40;69.60;;;;;;4953926;28;52550;-74
2023/09/05 11:42:23;;;;;;;5.00;1.30;;;39.30;69.10;;;;;;5005342;28;20534;-74
2023/09/05 11:44:50;;;;;;;5.43;1.20;;;39.40;69.40;;;;;;4940797;28;157563;-72
2023/09/05 11:47:18;;;;;;;5.72;1.20;;;39.60;69.50;;;;;;4998682;28;20058;-71
2023/09/05 11:49:47;;;;;;;7.95;1.50;;;39.80;69.60;;;;;;4961532;28;128580;-72
2023/09/05 11:52:15;;;;;;;6.05;1.30;;;39.90;69.70;;;;;;5005217;28;20392;-70
2023/09/05 11:54:42;;;;;;;7.30;1.38;;;39.70;69.30;;;;;;4921684;28;186733;-71
2023/09/05 11:57:09;;;;;;;9.30;1.30;;;39.40;69.80;;;;;;4987899;28;20372;-71
2023/09/05 11:59:37;;;;;;;5.53;1.10;;;39.60;70.30;;;;;;4956095;28;59725;-70
2023/09/05 12:02:08;;;;;;;4.53;1.00;;;40.00;71.00;;;;;;4987349;28;20115;-70
2023/09/05 12:04:40;;;;;;;5.97;1.20;;;40.20;69.40;;;;;;4957992;28;92331;-68
2023/09/05 12:07:06;;;;;;;5.15;1.30;;;40.30;69.20;;;;;;4987500;28;20688;-69
2023/09/05 12:09:33;;;;;;;5.63;1.20;;;40.30;68.90;;;;;;4933478;28;224180;-70
2023/09/05 12:12:13;;;;;;;5.25;1.27;;;40.50;69.20;;;;;;4982523;28;20058;-70
2023/09/05 12:14:51;;;;;;;6.53;1.30;;;40.50;67.70;;;;;;4941200;28;155950;-69
2023/09/05 12:17:22;;;;;;;4.93;1.10;;;40.40;67.90;;;;;;4984599;28;20057;-70
2023/09/05 12:19:49;;;;;;;6.30;1.30;;;40.30;68.70;;;;;;4922330;28;232581;-70
2023/09/05 12:22:33;;;;;;;4.82;1.20;;;40.30;68.30;;;;;;4984109;28;20050;-69
2023/09/05 12:25:07;;;;;;;4.50;1.20;;;40.50;68.10;;;;;;4926441;28;115796;-70
2023/09/05 12:27:33;;;;;;;4.25;1.10;;;40.30;68.20;;;;;;4953413;28;20053;-70
2023/09/05 12:29:59;;;;;;;5.28;1.40;;;40.40;69.40;;;;;;4989353;28;94933;-71
2023/09/05 12:32:26;;;;;;;6.47;1.17;;;40.60;68.00;;;;;;4964277;28;20074;-70
2023/09/05 12:34:56;;;;;;;3.78;1.05;;;39.90;67.10;;;;;;4957862;28;59271;-72
2023/09/05 12:37:22;;;;;;;5.13;1.20;;;39.90;67.70;;;;;;4978822;28;20668;-67
2023/09/05 12:39:50;;;;;;;5.28;1.20;;;39.90;68.50;;;;;;4978362;28;177596;-70
2023/09/05 12:42:17;;;;;;;5.78;1.40;;;40.10;67.90;;;;;;4999323;28;20084;-68
2023/09/05 12:44:43;;;;;;;4.15;1.30;;;40.20;68.70;;;;;;4944214;28;201820;-69
2023/09/05 12:47:09;;;;;;;4.50;1.17;;;40.50;69.10;;;;;;4981195;28;20062;-68